Time;durP1;ratioP1;P1;durP2;ratioP2;P2;SDS_P1;SDS_P2;PMS_P1;PMS_P2;Temp;Humidity;BMP_temperature;BMP_pressure;BME280_temperature;BME280_humidity;BME280_pressure;Samples;Min_cycle;Max_cycle;Signal;HPM_P1;HPM_P2
2023/07/19 00:01:51;;;;;;;0.50;0.20;;;;;;;20.02;78.19;99925.44;5053886;28;20447;-53
2023/07/19 00:04:17;;;;;;;0.50;0.20;;;;;;;19.74;79.50;99915.78;5053917;28;20991;-53
2023/07/19 00:06:44;;;;;;;0.50;0.20;;;;;;;19.65;79.78;99917.31;5053874;28;20454;-53
2023/07/19 00:09:11;;;;;;;0.50;0.20;;;;;;;19.58;80.30;99918.69;5053729;28;20564;-53
2023/07/19 00:11:37;;;;;;;0.50;0.20;;;;;;;19.39;81.31;99919.13;5053850;28;20485;-53
2023/07/19 00:14:05;;;;;;;0.50;0.20;;;;;;;19.48;81.20;99921.19;5053811;28;20916;-53
2023/07/19 00:16:33;;;;;;;0.50;0.20;;;;;;;19.33;81.24;99916.88;5053861;28;20496;-53
2023/07/19 00:19:00;;;;;;;0.50;0.20;;;;;;;19.26;81.74;99912.03;5053826;28;20498;-53
2023/07/19 00:21:45;;;;;;;0.50;0.20;;;;;;;19.12;83.00;99921.06;5053684;28;20826;-53
2023/07/19 00:24:12;;;;;;;0.50;0.20;;;;;;;19.06;83.47;99918.81;5053524;28;20478;-53
2023/07/19 00:26:38;;;;;;;0.50;0.20;;;;;;;18.90;84.15;99922.56;5053390;28;20832;-53
2023/07/19 00:29:05;;;;;;;0.50;0.20;;;;;;;18.84;84.67;99922.97;5053487;28;20494;-53
2023/07/19 00:31:31;;;;;;;0.50;0.20;;;;;;;18.93;84.74;99916.97;5053454;28;20485;-53
2023/07/19 00:33:58;;;;;;;0.50;0.20;;;;;;;19.20;84.15;99913.31;5053562;28;20887;-53
2023/07/19 00:36:25;;;;;;;0.50;0.30;;;;;;;19.11;84.20;99920.22;5053351;28;20462;-53
2023/07/19 00:38:51;;;;;;;0.50;0.20;;;;;;;19.12;84.46;99921.06;5052895;28;20505;-53
2023/07/19 00:41:20;;;;;;;0.50;0.20;;;;;;;19.11;84.34;99925.59;5044878;28;20447;-53
2023/07/19 00:43:48;;;;;;;0.60;0.47;;;;;;;19.19;84.13;99922.38;5034336;28;20505;-53
2023/07/19 00:46:14;;;;;;;0.50;0.20;;;;;;;19.22;84.02;99916.78;5053193;28;20454;-53
2023/07/19 00:48:42;;;;;;;0.50;0.20;;;;;;;19.09;83.99;99924.00;5052969;28;20502;-53
2023/07/19 00:51:09;;;;;;;0.50;0.20;;;;;;;18.94;84.50;99918.69;5053104;28;20451;-54
2023/07/19 00:53:38;;;;;;;0.50;0.20;;;;;;;18.81;84.27;99920.50;5052774;28;20472;-53
2023/07/19 00:56:04;;;;;;;0.50;0.20;;;;;;;18.78;83.55;99919.88;5052920;28;20964;-53
2023/07/19 00:58:31;;;;;;;0.50;0.20;;;;;;;18.79;83.94;99921.59;5052983;28;20494;-53
2023/07/19 01:00:58;;;;;;;0.50;0.20;;;;;;;18.76;83.80;99927.16;5052830;28;20482;-53
2023/07/19 01:03:25;;;;;;;0.50;0.20;;;;;;;18.68;83.99;99922.31;5052808;28;20446;-53
2023/07/19 01:05:52;;;;;;;0.50;0.20;;;;;;;18.54;84.38;99923.22;5052752;28;20475;-54
2023/07/19 01:08:19;;;;;;;0.50;0.27;;;;;;;18.55;84.77;99921.38;5052470;28;20582;-53
2023/07/19 01:10:46;;;;;;;0.50;0.30;;;;;;;18.72;84.24;99922.97;5052965;28;20473;-53
2023/07/19 01:13:12;;;;;;;0.50;0.20;;;;;;;18.86;83.57;99936.34;5052777;28;20489;-53
2023/07/19 01:15:42;;;;;;;0.50;0.20;;;;;;;18.77;84.00;99939.66;5052728;28;20516;-53
2023/07/19 01:18:09;;;;;;;0.50;0.20;;;;;;;18.67;85.00;99934.06;5052562;28;20502;-53
2023/07/19 01:20:36;;;;;;;0.50;0.20;;;;;;;18.68;84.64;99930.38;5052478;28;20451;-53
2023/07/19 01:23:03;;;;;;;0.50;0.20;;;;;;;18.61;85.40;99937.09;5052788;28;20554;-53
2023/07/19 01:25:30;;;;;;;0.50;0.20;;;;;;;18.75;85.17;99930.81;5052343;28;20485;-53
2023/07/19 01:27:57;;;;;;;0.50;0.20;;;;;;;18.56;86.48;99931.19;5052400;28;20486;-53
2023/07/19 01:30:23;;;;;;;0.50;0.20;;;;;;;18.43;87.39;99938.34;5052626;28;20621;-53
2023/07/19 01:32:50;;;;;;;0.50;0.20;;;;;;;18.42;87.75;99940.19;5052495;28;20542;-53
2023/07/19 01:35:18;;;;;;;0.50;0.20;;;;;;;18.52;87.56;99924.28;5034873;28;20446;-53
2023/07/19 01:37:45;;;;;;;0.50;0.20;;;;;;;18.44;87.45;99916.72;5034905;28;20443;-53
2023/07/19 01:40:12;;;;;;;0.50;0.20;;;;;;;18.52;87.17;99910.81;5052153;28;20503;-53
2023/07/19 01:42:39;;;;;;;0.50;0.20;;;;;;;18.56;86.37;99917.72;5033820;28;20448;-53
2023/07/19 01:45:06;;;;;;;0.50;0.20;;;;;;;18.58;85.74;99916.66;5044366;28;20459;-53
2023/07/19 01:47:34;;;;;;;0.50;0.20;;;;;;;18.49;86.46;99911.88;5052026;28;20447;-53
2023/07/19 01:50:00;;;;;;;0.50;0.20;;;;;;;18.43;87.01;99916.81;5034471;28;20983;-53
2023/07/19 01:52:27;;;;;;;0.50;0.20;;;;;;;18.49;86.32;99900.25;5051724;28;20479;-53
2023/07/19 01:54:53;;;;;;;0.50;0.20;;;;;;;18.41;87.03;99898.09;5052321;28;20486;-53
2023/07/19 01:57:22;;;;;;;0.50;0.20;;;;;;;18.40;87.23;99904.44;5051951;28;20943;-53
2023/07/19 01:59:48;;;;;;;0.50;0.20;;;;;;;18.23;88.02;99896.63;5052472;28;20558;-53
2023/07/19 02:02:15;;;;;;;0.50;0.20;;;;;;;18.21;87.82;99898.53;5038707;28;20575;-53
2023/07/19 02:04:41;;;;;;;0.50;0.20;;;;;;;18.20;87.86;99892.28;5051980;28;21002;-53
2023/07/19 02:07:08;;;;;;;0.50;0.20;;;;;;;18.00;87.87;99890.06;5052330;28;20459;-53
2023/07/19 02:09:34;;;;;;;0.50;0.20;;;;;;;17.96;88.13;99883.19;5051970;28;20569;-53
2023/07/19 02:12:01;;;;;;;0.50;0.20;;;;;;;17.93;88.00;99883.34;5051978;28;20462;-53
2023/07/19 02:14:28;;;;;;;0.50;0.20;;;;;;;18.02;88.04;99886.31;5051933;28;20457;-53
2023/07/19 02:16:55;;;;;;;0.50;0.20;;;;;;;17.90;87.75;99886.25;5051920;28;20533;-53
2023/07/19 02:19:21;;;;;;;0.50;0.30;;;;;;;18.03;88.14;99888.03;5051946;28;20520;-53
2023/07/19 02:21:48;;;;;;;0.50;0.20;;;;;;;18.19;87.37;99887.88;5052055;28;20454;-53
2023/07/19 02:24:16;;;;;;;0.50;0.20;;;;;;;18.01;87.96;99895.34;5051731;28;20455;-53
2023/07/19 02:26:43;;;;;;;0.50;0.30;;;;;;;17.96;88.55;99891.25;5051682;28;20796;-53
2023/07/19 02:29:09;;;;;;;0.50;0.20;;;;;;;17.92;89.21;99901.31;5051472;28;20513;-53
2023/07/19 02:31:37;;;;;;;0.50;0.20;;;;;;;17.96;88.65;99888.56;5051696;28;20529;-53
2023/07/19 02:34:07;;;;;;;0.50;0.20;;;;;;;17.73;89.57;99890.03;5051932;28;20876;-53
2023/07/19 02:36:34;;;;;;;0.50;0.20;;;;;;;17.60;89.76;99887.25;5051794;28;20451;-53
2023/07/19 02:39:02;;;;;;;0.50;0.20;;;;;;;17.54;90.17;99890.31;5051977;28;20479;-52
2023/07/19 02:41:30;;;;;;;0.50;0.20;;;;;;;17.38;90.59;99895.78;5042762;28;20867;-52
2023/07/19 02:43:56;;;;;;;0.50;0.20;;;;;;;17.36;91.52;99896.84;5033653;28;20447;-52
2023/07/19 02:46:23;;;;;;;0.50;0.20;;;;;;;17.36;91.73;99889.66;5051628;28;20461;-51
2023/07/19 02:48:49;;;;;;;0.50;0.20;;;;;;;17.43;90.98;99899.06;5051332;28;20490;-51
2023/07/19 02:51:16;;;;;;;0.50;0.20;;;;;;;17.37;91.76;99899.44;5051610;28;20952;-52
2023/07/19 02:53:42;;;;;;;0.50;0.20;;;;;;;17.31;91.89;99898.97;5051437;28;20490;-51
2023/07/19 02:56:09;;;;;;;0.50;0.20;;;;;;;17.30;91.67;99902.63;5033969;28;20944;-52
2023/07/19 02:58:35;;;;;;;0.50;0.20;;;;;;;17.23;92.15;99909.31;5051376;28;20506;-51
2023/07/19 03:01:02;;;;;;;0.50;0.20;;;;;;;17.23;92.06;99915.56;5051968;28;20462;-51
2023/07/19 03:03:29;;;;;;;0.50;0.20;;;;;;;17.20;92.32;99918.44;5052152;28;20845;-52
2023/07/19 03:05:56;;;;;;;0.50;0.20;;;;;;;17.14;92.48;99916.16;5055510;28;20457;-52
2023/07/19 03:08:22;;;;;;;0.50;0.20;;;;;;;17.05;92.76;99914.88;5054872;28;20522;-51
2023/07/19 03:10:55;;;;;;;0.50;0.20;;;;;;;16.97;92.68;99917.16;5054971;28;20541;-51
2023/07/19 03:13:22;;;;;;;0.50;0.20;;;;;;;16.98;93.17;99923.38;5054794;28;20454;-52
2023/07/19 03:15:48;;;;;;;0.50;0.20;;;;;;;16.95;93.48;99932.50;5054834;28;20450;-51
2023/07/19 03:18:15;;;;;;;0.50;0.20;;;;;;;16.81;93.68;99924.41;5054893;28;20549;-51
2023/07/19 03:20:41;;;;;;;0.50;0.20;;;;;;;16.98;92.70;99924.25;5054974;28;20452;-52
2023/07/19 03:23:08;;;;;;;0.50;0.20;;;;;;;16.90;93.50;99931.06;5054721;28;20473;-52
2023/07/19 03:25:34;;;;;;;0.50;0.20;;;;;;;16.86;93.28;99925.03;5054504;28;20529;-51
2023/07/19 03:28:01;;;;;;;0.50;0.20;;;;;;;16.77;93.85;99934.47;5054813;28;20447;-51
2023/07/19 03:30:28;;;;;;;0.50;0.20;;;;;;;16.90;93.47;99933.75;5054825;28;20487;-51
2023/07/19 03:32:54;;;;;;;0.50;0.20;;;;;;;16.77;93.85;99941.66;5054492;28;21001;-51
2023/07/19 03:35:21;;;;;;;0.50;0.20;;;;;;;16.87;93.66;99943.72;5054748;28;20885;-51
2023/07/19 03:37:48;;;;;;;0.50;0.20;;;;;;;16.83;93.53;99942.16;5054499;28;20454;-52
2023/07/19 03:40:15;;;;;;;0.50;0.20;;;;;;;16.79;94.03;99951.34;5054098;28;20450;-51
2023/07/19 03:42:41;;;;;;;0.50;0.20;;;;;;;16.59;94.50;99948.97;5035648;28;20486;-51
2023/07/19 03:45:08;;;;;;;0.50;0.20;;;;;;;16.50;94.92;99955.72;5046847;28;20458;-51
2023/07/19 03:47:34;;;;;;;0.50;0.20;;;;;;;16.61;94.19;99960.47;5054361;28;20451;-51
2023/07/19 03:50:01;;;;;;;0.50;0.20;;;;;;;16.52;94.78;99964.53;5054106;28;20494;-51
2023/07/19 03:52:28;;;;;;;0.50;0.20;;;;;;;16.42;94.88;99962.47;5054193;28;20529;-52
2023/07/19 03:54:54;;;;;;;0.50;0.20;;;;;;;16.29;95.31;99957.81;5054088;28;20884;-51
2023/07/19 03:57:21;;;;;;;0.50;0.20;;;;;;;16.35;95.98;99959.31;5054072;28;20501;-51
2023/07/19 03:59:47;;;;;;;0.50;0.20;;;;;;;16.42;95.77;99959.78;5054213;28;20491;-51
2023/07/19 04:02:14;;;;;;;0.50;0.20;;;;;;;16.52;95.31;99947.59;5054173;28;20482;-51
2023/07/19 04:04:40;;;;;;;0.60;0.60;;;;;;;16.46;95.46;99953.31;5054104;28;20461;-51
2023/07/19 04:07:07;;;;;;;0.50;0.20;;;;;;;16.53;94.94;99952.00;5053899;28;20486;-51
2023/07/19 04:09:33;;;;;;;0.50;0.20;;;;;;;16.61;94.67;99952.41;5053701;28;20486;-51
2023/07/19 04:12:00;;;;;;;0.50;0.20;;;;;;;16.60;94.69;99953.38;5053974;28;20462;-52
2023/07/19 04:14:26;;;;;;;0.50;0.20;;;;;;;16.59;94.71;99960.56;5053692;28;20457;-52
2023/07/19 04:16:53;;;;;;;0.50;0.20;;;;;;;16.82;93.67;99955.66;5053720;28;20542;-51
2023/07/19 04:19:20;;;;;;;0.50;0.20;;;;;;;16.79;93.83;99962.09;5053608;28;21033;-51
2023/07/19 04:21:47;;;;;;;0.50;0.20;;;;;;;16.72;93.93;99965.22;5053640;28;20451;-51
2023/07/19 04:24:13;;;;;;;0.50;0.20;;;;;;;16.75;93.92;99971.28;5053595;28;20940;-52
2023/07/19 04:26:40;;;;;;;0.50;0.20;;;;;;;16.51;94.70;99967.31;5052149;28;20498;-51
2023/07/19 04:29:06;;;;;;;0.50;0.20;;;;;;;16.61;94.23;99962.28;5049073;28;20530;-52
2023/07/19 04:31:33;;;;;;;0.50;0.20;;;;;;;16.56;94.47;99951.81;5040329;28;20950;-52
2023/07/19 04:33:59;;;;;;;0.50;0.20;;;;;;;16.47;95.08;99942.50;5053199;28;20936;-51
2023/07/19 04:36:26;;;;;;;0.50;0.20;;;;;;;16.62;95.13;99946.09;5053330;28;20455;-52
2023/07/19 04:38:53;;;;;;;0.50;0.20;;;;;;;17.27;92.97;99956.53;5053374;28;20475;-51
2023/07/19 04:41:19;;;;;;;0.47;0.20;;;;;;;17.34;92.77;99955.19;5045667;28;20484;-52
2023/07/19 04:43:46;;;;;;;0.47;0.20;;;;;;;17.75;90.96;99949.94;5034370;28;20447;-52
2023/07/19 04:46:12;;;;;;;0.50;0.30;;;;;;;18.66;87.26;99951.19;5053351;28;20561;-52
2023/07/19 04:48:39;;;;;;;0.50;0.20;;;;;;;19.34;84.62;99950.97;5053003;28;20524;-51
2023/07/19 04:51:06;;;;;;;0.50;0.30;;;;;;;20.25;80.58;99956.97;5053116;28;20503;-52
2023/07/19 04:53:33;;;;;;;0.50;0.20;;;;;;;20.55;79.50;99953.84;5053217;28;20450;-52
2023/07/19 04:55:59;;;;;;;0.50;0.20;;;;;;;20.81;77.80;99962.66;5053074;28;20451;-52
2023/07/19 04:58:26;;;;;;;0.50;0.20;;;;;;;21.27;75.75;99967.28;5052976;28;20474;-52
2023/07/19 05:00:52;;;;;;;0.50;0.20;;;;;;;21.36;74.85;99961.13;5053298;28;20530;-52
2023/07/19 05:03:19;;;;;;;0.50;0.20;;;;;;;21.38;74.21;99969.13;5052893;28;20451;-51
2023/07/19 05:05:47;;;;;;;0.50;0.40;;;;;;;21.73;73.93;99966.34;5052768;28;20447;-51
2023/07/19 05:08:14;;;;;;;0.50;0.20;;;;;;;22.14;71.40;99965.72;5052789;28;21043;-51
2023/07/19 05:10:40;;;;;;;0.50;0.20;;;;;;;22.06;70.46;99963.63;5052777;28;20574;-51
2023/07/19 05:13:07;;;;;;;0.50;0.20;;;;;;;22.05;70.41;99967.31;5052926;28;20451;-52
2023/07/19 05:15:34;;;;;;;0.50;0.20;;;;;;;22.08;70.37;99969.81;5052525;28;20483;-52
2023/07/19 05:18:01;;;;;;;0.50;0.20;;;;;;;22.14;69.83;99968.44;5052585;28;20542;-52
2023/07/19 05:20:28;;;;;;;0.50;0.20;;;;;;;22.27;68.66;99958.31;5053039;28;20851;-51
2023/07/19 05:22:58;;;;;;;0.50;0.20;;;;;;;22.39;68.76;99953.75;5052709;28;20868;-51
2023/07/19 05:25:25;;;;;;;0.50;0.20;;;;;;;22.63;68.03;99949.00;5052665;28;20454;-51
2023/07/19 05:27:52;;;;;;;0.50;0.20;;;;;;;22.90;67.53;99959.38;5051606;28;20493;-52
2023/07/19 05:30:18;;;;;;;0.50;0.20;;;;;;;22.96;67.83;99961.56;5052285;28;20883;-51
2023/07/19 05:32:45;;;;;;;0.50;0.20;;;;;;;23.41;66.52;99960.41;5052152;28;20867;-53
2023/07/19 05:35:12;;;;;;;0.50;0.20;;;;;;;23.33;65.79;99967.38;5052333;28;20455;-52
2023/07/19 05:37:39;;;;;;;0.50;0.20;;;;;;;23.18;65.73;99959.72;5052059;28;21007;-52
2023/07/19 05:40:07;;;;;;;0.60;0.47;;;;;;;23.43;64.71;99963.84;5051998;28;20467;-52
2023/07/19 05:42:34;;;;;;;0.50;0.20;;;;;;;23.33;64.52;99955.69;5016670;28;20456;-52
2023/07/19 05:45:01;;;;;;;0.50;0.20;;;;;;;23.78;61.23;99964.38;5043627;28;20458;-52
2023/07/19 05:47:28;;;;;;;0.50;0.20;;;;;;;23.86;62.09;99969.13;5051855;28;20878;-52
2023/07/19 05:49:56;;;;;;;0.50;0.20;;;;;;;23.69;62.46;99967.03;5052413;28;20509;-51
2023/07/19 05:52:23;;;;;;;0.50;0.20;;;;;;;23.87;61.16;99969.00;5052273;28;20469;-52
2023/07/19 05:54:49;;;;;;;0.50;0.40;;;;;;;24.13;61.10;99961.22;5052300;28;20453;-52
2023/07/19 05:57:16;;;;;;;0.50;0.30;;;;;;;24.01;60.82;99969.63;5052004;28;20844;-52
2023/07/19 05:59:42;;;;;;;0.50;0.20;;;;;;;24.44;59.36;99962.03;5051996;28;20521;-51
2023/07/19 06:02:09;;;;;;;0.50;0.20;;;;;;;24.41;58.58;99978.63;5051963;28;20457;-52
2023/07/19 06:04:36;;;;;;;0.50;0.30;;;;;;;24.51;58.38;99979.47;5052135;28;20970;-52
2023/07/19 06:07:03;;;;;;;0.50;0.30;;;;;;;24.42;59.40;99982.22;5051943;28;20450;-52
2023/07/19 06:09:30;;;;;;;0.50;0.30;;;;;;;24.12;60.28;99983.97;5051861;28;20697;-52
2023/07/19 06:11:57;;;;;;;0.50;0.30;;;;;;;24.80;59.20;99987.66;5051801;28;20827;-51
2023/07/19 06:14:24;;;;;;;0.50;0.20;;;;;;;24.74;59.34;99987.41;5051784;28;20817;-52
2023/07/19 06:16:50;;;;;;;0.50;0.20;;;;;;;24.79;58.44;99983.22;5052025;28;20459;-52
2023/07/19 06:19:19;;;;;;;0.50;0.23;;;;;;;25.08;57.27;99985.13;5051941;28;20494;-52
2023/07/19 06:21:46;;;;;;;0.50;0.20;;;;;;;24.87;58.28;99985.25;5034242;28;20512;-52
2023/07/19 06:24:12;;;;;;;0.60;0.30;;;;;;;25.01;57.82;99979.41;5051938;28;20455;-52
2023/07/19 06:26:39;;;;;;;0.50;0.20;;;;;;;24.81;57.58;99977.69;5051705;28;20454;-51
2023/07/19 06:29:05;;;;;;;0.50;0.30;;;;;;;25.10;57.46;99977.72;5051563;28;20516;-52
2023/07/19 06:31:32;;;;;;;0.50;0.20;;;;;;;25.09;57.35;99981.44;5051670;28;20425;-52
2023/07/19 06:33:58;;;;;;;0.50;0.20;;;;;;;25.18;56.95;99971.53;5051878;28;20454;-52
2023/07/19 06:36:26;;;;;;;0.50;0.30;;;;;;;25.25;57.08;99978.97;5051696;28;20968;-51
2023/07/19 06:38:53;;;;;;;2.53;1.60;;;;;;;25.47;56.21;99983.22;5054358;28;20478;-52
2023/07/19 06:41:19;;;;;;;0.50;0.20;;;;;;;25.08;56.93;99987.84;5047683;28;20965;-52
2023/07/19 06:43:47;;;;;;;0.50;0.30;;;;;;;25.30;56.71;99973.94;5036257;28;20426;-52
2023/07/19 06:46:13;;;;;;;0.50;0.20;;;;;;;25.35;55.71;99981.66;5055419;28;20469;-52
2023/07/19 06:48:40;;;;;;;0.50;0.30;;;;;;;25.30;55.78;99978.53;5037648;28;20554;-52
2023/07/19 06:51:07;;;;;;;0.50;0.30;;;;;;;25.51;55.98;99973.78;5055397;28;20544;-52
2023/07/19 06:53:34;;;;;;;0.50;0.30;;;;;;;25.25;55.22;99978.13;5055236;28;20517;-52
2023/07/19 06:56:01;;;;;;;0.50;0.20;;;;;;;25.05;56.59;99975.41;5055125;28;20473;-52
2023/07/19 06:58:27;;;;;;;0.50;0.30;;;;;;;25.19;55.60;99974.09;5055158;28;20997;-52
2023/07/19 07:00:55;;;;;;;0.50;0.30;;;;;;;25.55;54.48;99977.91;5055166;28;20446;-51
2023/07/19 07:03:23;;;;;;;0.50;0.27;;;;;;;25.91;54.15;99976.25;5055280;28;20450;-52
2023/07/19 07:05:50;;;;;;;0.50;0.20;;;;;;;25.92;53.08;99969.78;5055208;28;20473;-52
2023/07/19 07:08:16;;;;;;;0.50;0.30;;;;;;;26.02;52.67;99977.91;5054799;28;20467;-52
2023/07/19 07:10:43;;;;;;;0.50;0.30;;;;;;;26.19;52.67;99968.94;5037090;28;20483;-51
2023/07/19 07:13:10;;;;;;;0.50;0.30;;;;;;;25.88;52.91;99965.63;5055081;28;20446;-52
2023/07/19 07:15:37;;;;;;;0.50;0.30;;;;;;;25.67;53.75;99965.84;5054890;28;20454;-52
2023/07/19 07:18:04;;;;;;;0.50;0.20;;;;;;;25.89;52.56;99971.94;5054786;28;20477;-52
2023/07/19 07:20:34;;;;;;;0.50;0.30;;;;;;;26.14;53.33;99960.34;5054870;28;20446;-53
2023/07/19 07:23:01;;;;;;;0.50;0.30;;;;;;;25.95;51.90;99965.91;5054644;28;20447;-53
2023/07/19 07:25:29;;;;;;;0.50;0.30;;;;;;;26.15;51.86;99966.66;5054598;28;20451;-52
2023/07/19 07:27:57;;;;;;;0.50;0.30;;;;;;;26.75;50.48;99959.69;5054723;28;20561;-52
2023/07/19 07:30:23;;;;;;;0.50;0.30;;;;;;;26.41;51.26;99956.78;5054750;28;20522;-54
2023/07/19 07:32:50;;;;;;;0.50;0.30;;;;;;;26.92;49.68;99955.25;5054755;28;20496;-52
2023/07/19 07:35:16;;;;;;;0.50;0.20;;;;;;;27.41;48.86;99947.47;5054592;28;20909;-52
2023/07/19 07:37:43;;;;;;;0.50;0.30;;;;;;;26.78;49.11;99950.34;5054330;28;20478;-52
2023/07/19 07:40:11;;;;;;;0.50;0.30;;;;;;;26.61;48.88;99943.03;5054138;28;20441;-52
2023/07/19 07:42:38;;;;;;;0.50;0.30;;;;;;;26.56;48.78;99941.59;5036298;28;20448;-52
2023/07/19 07:45:05;;;;;;;0.50;0.30;;;;;;;26.89;47.67;99933.75;5028421;28;20808;-52
2023/07/19 07:47:32;;;;;;;0.50;0.20;;;;;;;27.33;45.68;99923.72;5054312;28;20482;-52
2023/07/19 07:50:01;;;;;;;0.50;0.30;;;;;;;27.07;46.48;99926.41;5053580;28;20497;-52
2023/07/19 07:52:27;;;;;;;0.50;0.30;;;;;;;26.67;46.88;99929.59;5054022;28;20455;-52
2023/07/19 07:54:54;;;;;;;0.50;0.30;;;;;;;27.11;46.23;99921.50;5054304;28;20497;-52
2023/07/19 07:57:20;;;;;;;0.50;0.30;;;;;;;27.43;46.28;99921.72;5053970;28;20969;-52
2023/07/19 07:59:47;;;;;;;0.60;0.60;;;;;;;27.45;46.56;99914.22;5053962;28;21058;-52
2023/07/19 08:02:13;;;;;;;0.50;0.27;;;;;;;27.38;47.24;99909.56;5054013;28;20465;-52
2023/07/19 08:04:40;;;;;;;0.50;0.30;;;;;;;27.36;47.52;99903.41;5053960;28;20531;-50
2023/07/19 08:07:06;;;;;;;0.50;0.30;;;;;;;27.39;46.25;99912.13;5053890;28;20486;-50
2023/07/19 08:09:34;;;;;;;0.50;0.30;;;;;;;27.38;46.12;99910.41;5053925;28;20548;-50
2023/07/19 08:12:00;;;;;;;0.97;0.87;;;;;;;27.77;46.11;99910.00;5053899;28;20537;-50
2023/07/19 08:14:27;;;;;;;0.50;0.40;;;;;;;27.98;46.08;99904.13;5053942;28;20486;-50
2023/07/19 08:16:53;;;;;;;0.50;0.27;;;;;;;27.90;44.35;99909.53;5053798;28;20883;-50
2023/07/19 08:19:20;;;;;;;0.60;0.57;;;;;;;27.97;45.16;99908.72;5053706;28;20570;-50
2023/07/19 08:21:46;;;;;;;0.50;0.30;;;;;;;28.39;44.00;99913.31;5040645;28;20461;-50
2023/07/19 08:24:13;;;;;;;0.50;0.30;;;;;;;28.39;42.59;99905.13;5053687;28;20450;-50
2023/07/19 08:26:40;;;;;;;0.50;0.30;;;;;;;29.08;41.46;99900.22;5040372;28;20457;-50
2023/07/19 08:29:06;;;;;;;0.50;0.30;;;;;;;29.18;40.78;99893.53;5053387;28;20524;-51
2023/07/19 08:31:34;;;;;;;0.50;0.30;;;;;;;28.76;39.88;99892.84;5053563;28;20840;-51
2023/07/19 08:34:01;;;;;;;0.50;0.30;;;;;;;28.74;40.46;99898.47;5053316;28;20447;-51
2023/07/19 08:36:27;;;;;;;0.50;0.30;;;;;;;29.21;41.33;99889.63;5053613;28;20457;-50
2023/07/19 08:38:54;;;;;;;0.50;0.30;;;;;;;29.71;40.24;99893.94;5064054;23;21015;-52
2023/07/19 08:41:21;;;;;;;0.50;0.30;;;;;;;29.12;39.80;99883.28;5051672;28;20440;-52
2023/07/19 08:43:51;;;;;;;0.50;0.30;;;;;;;29.36;38.19;99879.66;5039942;28;20455;-52
2023/07/19 08:46:17;;;;;;;0.50;0.30;;;;;;;29.51;38.65;99877.06;5033454;28;20455;-52
2023/07/19 08:48:49;;;;;;;0.50;0.30;;;;;;;29.28;37.83;99876.06;5048371;28;20877;-52
2023/07/19 08:51:17;;;;;;;0.50;0.30;;;;;;;29.13;37.73;99881.41;5053348;28;20552;-52
2023/07/19 08:53:44;;;;;;;0.50;0.30;;;;;;;29.03;38.90;99872.50;5053113;28;20440;-51
2023/07/19 08:56:11;;;;;;;0.50;0.30;;;;;;;29.06;38.18;99866.72;5053193;28;20436;-51
2023/07/19 08:58:39;;;;;;;0.50;0.30;;;;;;;28.97;37.56;99868.59;5052823;28;20453;-52
2023/07/19 09:01:07;;;;;;;0.50;0.30;;;;;;;29.16;37.49;99860.00;5051950;28;20950;-52
2023/07/19 09:03:34;;;;;;;0.50;0.30;;;;;;;29.46;37.73;99866.63;5053077;28;20433;-52
2023/07/19 09:06:01;;;;;;;0.50;0.30;;;;;;;29.70;38.20;99859.34;5053069;28;20431;-52
2023/07/19 09:08:39;;;;;;;0.50;0.30;;;;;;;30.04;36.63;99857.16;5052740;28;20479;-52
2023/07/19 09:11:07;;;;;;;0.50;0.30;;;;;;;30.19;36.20;99860.00;5052814;28;20495;-52
2023/07/19 09:13:36;;;;;;;0.50;0.30;;;;;;;30.18;35.05;99863.78;5052491;28;20952;-52
2023/07/19 09:16:05;;;;;;;0.50;0.30;;;;;;;29.21;37.02;99862.22;5052998;28;20424;-52
2023/07/19 09:18:37;;;;;;;0.50;0.30;;;;;;;29.09;36.18;99861.72;5052310;28;20446;-52
2023/07/19 09:21:05;;;;;;;0.50;0.40;;;;;;;29.25;36.13;99857.25;5052537;28;20520;-52
2023/07/19 09:23:36;;;;;;;0.50;0.30;;;;;;;29.31;37.91;99870.22;5052745;28;20481;-52
2023/07/19 09:26:04;;;;;;;0.50;0.30;;;;;;;28.95;36.11;99862.44;5052312;28;20426;-51
2023/07/19 09:28:32;;;;;;;0.50;0.30;;;;;;;28.94;36.17;99854.41;5052684;28;20451;-52
2023/07/19 09:31:01;;;;;;;0.50;0.23;;;;;;;28.81;36.18;99857.63;5052545;28;20582;-52
2023/07/19 09:33:47;;;;;;;0.50;0.30;;;;;;;28.74;36.45;99857.44;5037951;28;20455;-52
2023/07/19 09:36:18;;;;;;;0.50;0.30;;;;;;;28.60;37.11;99861.72;5052427;28;20550;-52
2023/07/19 09:38:45;;;;;;;0.50;0.30;;;;;;;28.75;36.94;99859.16;5052164;28;21046;-52
2023/07/19 09:41:13;;;;;;;0.50;0.30;;;;;;;29.14;37.14;99844.78;5045484;28;20915;-52
2023/07/19 09:43:40;;;;;;;0.50;0.30;;;;;;;28.93;37.14;99852.69;5032704;28;20452;-52
2023/07/19 09:46:07;;;;;;;0.50;0.30;;;;;;;28.75;37.48;99845.47;5052104;28;20458;-52
2023/07/19 09:48:34;;;;;;;0.50;0.30;;;;;;;28.93;37.63;99845.34;5052193;28;20463;-52
2023/07/19 09:51:02;;;;;;;0.50;0.30;;;;;;;29.00;38.44;99851.81;5052139;28;20544;-52
2023/07/19 09:53:32;;;;;;;0.50;0.30;;;;;;;28.97;37.96;99838.47;5052312;28;20799;-52
2023/07/19 09:55:58;;;;;;;0.50;0.30;;;;;;;28.93;37.67;99842.59;5052360;28;20516;-52
2023/07/19 09:58:27;;;;;;;0.50;0.30;;;;;;;28.80;37.35;99845.81;5052146;28;20456;-52
2023/07/19 10:00:53;;;;;;;0.50;0.30;;;;;;;29.02;38.12;99830.59;5052268;28;20474;-52
2023/07/19 10:03:20;;;;;;;0.50;0.30;;;;;;;29.16;37.70;99837.22;5052072;28;20727;-52
2023/07/19 10:05:57;;;;;;;0.50;0.30;;;;;;;29.15;37.78;99830.06;5052258;28;20520;-52
2023/07/19 10:08:24;;;;;;;0.50;0.30;;;;;;;29.07;36.84;99821.88;5052209;28;20421;-52
2023/07/19 10:10:58;;;;;;;0.50;0.30;;;;;;;29.05;37.78;99812.97;5051975;28;21065;-52
2023/07/19 10:13:29;;;;;;;0.50;0.30;;;;;;;29.14;38.28;99822.88;5054404;28;20512;-52
2023/07/19 10:15:56;;;;;;;0.50;0.30;;;;;;;29.31;38.06;99823.66;5056128;28;20458;-52
2023/07/19 10:18:24;;;;;;;0.50;0.30;;;;;;;28.96;39.17;99816.75;5056012;28;20455;-52
2023/07/19 10:21:02;;;;;;;0.50;0.30;;;;;;;29.42;38.08;99812.34;5056246;28;20467;-52
2023/07/19 10:23:31;;;;;;;0.50;0.30;;;;;;;29.45;37.75;99809.25;5043670;28;20449;-52
2023/07/19 10:26:09;;;;;;;0.50;0.30;;;;;;;29.13;38.27;99815.69;5055938;28;20516;-52
2023/07/19 10:28:38;;;;;;;0.50;0.30;;;;;;;28.88;38.91;99812.13;5055751;28;21003;-52
2023/07/19 10:31:06;;;;;;;0.50;0.30;;;;;;;29.23;38.37;99801.81;5055628;28;20472;-52
2023/07/19 10:33:53;;;;;;;0.50;0.30;;;;;;;28.98;38.66;99798.28;5056152;28;20424;-52
2023/07/19 10:36:20;;;;;;;0.50;0.30;;;;;;;28.85;39.67;99809.72;5055708;28;20474;-52
2023/07/19 10:38:47;;;;;;;0.50;0.30;;;;;;;28.82;38.35;99801.88;5055399;28;20539;-52
2023/07/19 10:41:15;;;;;;;0.50;0.20;;;;;;;28.76;38.96;99806.13;5049057;28;20497;-52
2023/07/19 10:43:42;;;;;;;0.50;0.30;;;;;;;28.66;39.22;99804.63;5036125;28;20462;-52
2023/07/19 10:46:18;;;;;;;0.50;0.30;;;;;;;28.79;38.77;99796.75;5043981;28;20424;-52
2023/07/19 10:48:51;;;;;;;0.50;0.30;;;;;;;28.91;38.39;99796.22;5055532;28;21111;-52
2023/07/19 10:51:18;;;;;;;0.50;0.30;;;;;;;29.02;38.34;99794.16;5055405;28;20493;-52
2023/07/19 10:53:56;;;;;;;0.50;0.30;;;;;;;29.22;38.16;99797.38;5055560;28;20458;-52
2023/07/19 10:56:23;;;;;;;0.50;0.30;;;;;;;29.27;37.81;99789.47;5055631;28;20442;-52
2023/07/19 10:58:50;;;;;;;0.50;0.30;;;;;;;28.89;39.48;99791.94;5055226;28;20470;-52
2023/07/19 11:01:17;;;;;;;0.50;0.30;;;;;;;28.88;38.59;99785.63;5055413;28;20417;-52
2023/07/19 11:03:45;;;;;;;0.50;0.30;;;;;;;28.76;38.58;99781.50;5055211;28;20425;-52
2023/07/19 11:06:12;;;;;;;0.50;0.27;;;;;;;29.23;38.42;99780.75;5055048;28;20432;-52
2023/07/19 11:08:39;;;;;;;0.50;0.40;;;;;;;29.56;38.68;99776.03;5055218;28;20549;-52
2023/07/19 11:11:07;;;;;;;0.50;0.30;;;;;;;29.75;37.20;99775.59;5055008;28;20981;-52
2023/07/19 11:13:37;;;;;;;0.50;0.30;;;;;;;29.97;37.13;99775.78;5055040;28;20429;-52
2023/07/19 11:16:04;;;;;;;0.50;0.30;;;;;;;30.12;36.41;99773.16;5055108;28;20450;-52
2023/07/19 11:18:40;;;;;;;0.50;0.30;;;;;;;29.77;36.75;99765.31;5054784;28;20509;-52
2023/07/19 11:21:07;;;;;;;0.50;0.30;;;;;;;30.30;36.73;99766.34;5054938;28;20967;-52
2023/07/19 11:23:44;;;;;;;0.50;0.30;;;;;;;30.60;36.41;99766.41;5054855;28;20517;-52
2023/07/19 11:26:12;;;;;;;0.50;0.27;;;;;;;30.29;36.55;99755.53;5054303;28;20421;-52
2023/07/19 11:28:45;;;;;;;0.50;0.30;;;;;;;30.02;35.85;99757.78;5054762;28;20484;-52
2023/07/19 11:31:34;;;;;;;0.50;0.23;;;;;;;29.48;37.44;99756.91;5054404;28;20526;-52
2023/07/19 11:34:05;;;;;;;0.50;0.30;;;;;;;29.65;37.42;99755.78;5054813;28;20454;-52
2023/07/19 11:36:33;;;;;;;0.50;0.30;;;;;;;29.65;38.17;99753.03;5054640;28;20988;-52